Latest Coastal Weather Observations for Cape Bruny AWS

IDT60701

Issued at 12:42 am EDT Friday 3 February 2023 (issued every 10 minutes, with the page automatically refreshed every 10 minutes)

About coastal observations | Map of coastal stations | Coastal observations for TAS | Marine services | Other Formats
Station Details ID: 094198 Name: CAPE BRUNY (CAPE BRUNY) Lat: -43.49 Lon: 147.14 Height: 59.7 m
Data from the previous 72 hours. | See also: Recent months at Cape Bruny AWS
Date/Time
EDT
Wind Sea
Height
m
Swell Vis
km
Cloud Weather Temp
°C
Press
MSL
hPa
Rain since
9am
mm
Dir  Spd
kts
Gust
kts
Height
m
Period
s
Dir
03/12:30am NW 6 8 - - - - - - - 10.4 983.8 -
03/12:00am WNW 11 13 - - - - - - - 10.9 983.6 -
 
Date/Time
EDT
Wind Sea
Height
m
Swell Vis
km
Cloud Weather Temp
°C
Press
MSL
hPa
Rain since
9am
mm
Dir  Spd
kts
Gust
kts
Height
m
Period
s
Dir
02/11:30pm NW 9 11 - - - - - - - 10.8 983.9 -
02/11:00pm NW 11 14 - - - - - - - 11.1 984.2 -
02/10:30pm NNW 9 11 - - - - - - - 10.7 984.2 -
02/10:00pm NNW 8 10 - - - - - - - 10.8 984.3 -
02/09:30pm NNW 9 11 - - - - - - - 11.0 984.0 -
02/09:00pm NW 8 14 - - - - - - - 11.3 983.5 6.0
02/08:30pm NW 10 13 - - - - - - - 11.4 983.2 -
02/08:00pm NNW 8 9 - - - - - - - 11.1 982.7 -
02/07:30pm N 8 11 - - - - - - - 11.1 982.6 -
02/07:00pm NNW 8 10 - - - - - - - 11.1 982.1 -
02/06:30pm N 7 11 - - - - - - - 11.3 981.8 -
02/06:00pm NE 6 9 - - - - - - Recent precip. 12.0 981.2 -
02/05:30pm N 6 7 - - - - - - - 11.8 981.6 -
02/05:00pm NE 5 7 - - - - - - - 11.9 982.2 -
02/04:30pm WNW 11 15 - - - - - - - 11.6 982.3 -
02/04:00pm W 24 31 - - - - - - - 11.3 982.2 -
02/03:47pm WSW 16 28 - - - - - - - 11.8 982.1 -
02/03:30pm SE 8 20 - - - - - - - 14.2 981.8 -
02/03:00pm N 6 11 - - - - - - - 18.0 981.5 -
02/02:30pm NNE 9 14 - - - - - - - 19.1 981.6 -
02/02:00pm NNE 9 15 - - - - - - - 19.6 982.0 -
02/01:30pm NNW 12 17 - - - - - - - 18.9 982.6 -
02/01:00pm NNE 9 14 - - - - - - - 17.4 983.2 -
02/12:00pm N 8 - - - - - - - - 14.5 985.1 -
02/11:30am NE 7 11 - - - - - - - 14.5 985.6 0.0
02/11:00am N 8 14 - - - - - - - 13.7 986.2 0.0
02/10:30am N 9 13 - - - - - - - 13.4 986.9 0.0
02/10:00am N 10 15 - - - - - - - 13.3 987.4 0.0
02/09:30am NNW 12 17 - - - - - - - 13.1 988.1 0.0
02/09:00am N 8 12 - - - - - - - 13.0 988.8 0.4
02/08:30am N 7 14 - - - - - - - 12.4 989.4 0.4
02/08:00am N 9 13 - - - - - - - 12.1 989.8 0.4
02/07:30am N 8 12 - - - - - - - 11.8 990.5 0.4
02/07:00am NNE 7 13 - - - - - - - 11.7 990.9 0.4
02/06:30am N 7 11 - - - - - - - 11.5 991.4 0.4
02/06:00am N 6 10 - - - - - - - 11.4 992.0 0.4
02/05:30am NNW 6 10 - - - - - - - 11.6 992.5 0.4
02/05:00am NNW 7 13 - - - - - - - 11.5 992.7 0.4
02/04:30am NNW 7 10 - - - - - - - 11.5 993.2 0.4
02/04:00am NNW 8 11 - - - - - - - 11.3 993.7 0.4
02/03:30am NNW 7 10 - - - - - - - 11.5 994.3 0.4
02/03:00am NNW 8 11 - - - - - - - 11.5 995.0 0.4
02/02:30am N 9 12 - - - - - - - 11.5 995.9 0.4
02/02:00am N 9 13 - - - - - - - 10.9 996.2 0.4
02/01:30am NNW 9 11 - - - - - - - 10.7 996.9 0.4
02/01:00am NW 12 17 - - - - - - - 11.3 997.6 0.4
02/12:44am WNW 16 24 - - - - - - - 11.9 997.7 0.4
02/12:30am W 20 23 - - - - - - - 11.9 997.2 0.4
02/12:00am WNW 12 17 - - - - - - - 12.0 998.4 0.4
 
Date/Time
EDT
Wind Sea
Height
m
Swell Vis
km
Cloud Weather Temp
°C
Press
MSL
hPa
Rain since
9am
mm
Dir  Spd
kts
Gust
kts
Height
m
Period
s
Dir
01/11:30pm W 13 16 - - - - - - - 11.8 998.7 0.4
01/11:00pm W 13 15 - - - - - - - 11.9 999.5 0.4
01/10:30pm WNW 13 15 - - - - - - - 12.1 1000.0 0.4
01/10:00pm WNW 12 15 - - - - - - - 12.4 1000.2 0.4
01/09:30pm WNW 15 19 - - - - - - - 12.8 1000.2 0.4
01/09:00pm W 12 15 - - - - - - - 12.7 1000.2 0.4
01/08:30pm WSW 14 18 - - - - - - - 13.0 1000.3 0.4
01/08:00pm WSW 14 18 - - - - - - - 13.7 1000.1 0.4
01/07:30pm WSW 16 20 - - - - - - - 14.1 1000.0 0.4
01/07:00pm WSW 19 23 - - - - - - - 14.4 999.8 0.4
01/06:30pm WSW 19 25 - - - - - - - 14.9 999.8 0.4
01/06:00pm WSW 18 25 - - - - - - - 15.5 1000.1 0.4
01/05:30pm WSW 21 26 - - - - - - - 15.4 1000.1 0.4
01/05:00pm WSW 21 28 - - - - - - - 15.7 1000.5 0.4
01/04:30pm WSW 22 30 - - - - - - - 16.2 1000.8 0.4
01/04:00pm WSW 22 28 - - - - - - - 13.7 1001.2 0.4
01/03:44pm WSW 25 35 - - - - - - - 13.0 1001.3 0.4
01/03:30pm WSW 26 34 - - - - - - - 14.9 1001.1 0.4
01/03:00pm WSW 21 29 - - - - - - - 16.0 1001.2 0.4
01/02:30pm WSW 22 28 - - - - - - - 14.9 1000.9 0.4
01/02:16pm WSW 19 32 - - - - - - - 14.6 1000.8 0.4
01/02:00pm WSW 15 20 - - - - - - - 14.6 1000.8 0.4
01/01:30pm WSW 20 26 - - - - - - - 15.3 1000.9 0.4
01/01:12pm W 24 34 - - - - - - - 14.0 1000.5 0.4
01/01:00pm WSW 25 31 - - - - - - - 12.5 1000.6 0.2
01/12:30pm WSW 20 27 - - - - - - - 12.9 1001.0 0.2
01/12:00pm WSW 19 25 - - - - - - Recent precip. 12.3 1001.0 0.2
01/11:30am W 19 26 - - - - - - - 11.9 1001.3 0.0
01/11:00am WSW 21 30 - - - - - - - 11.7 1001.1 0.0
01/10:30am WSW 24 30 - - - - - - - 12.3 1000.9 0.0
01/10:00am WSW 26 34 - - - - - - - 12.1 1000.5 0.0
01/09:30am WSW 26 34 - - - - - - - 11.5 1000.2 0.0
01/09:05am WSW 30 41 - - - - - - - 11.5 999.9 0.0
01/09:00am WSW 30 37 - - - - - - - 11.4 999.9 0.2
01/08:54am WSW 27 37 - - - - - - - 11.7 999.8 0.2
01/08:48am WSW 21 32 - - - - - - - 12.5 999.6 0.2
01/08:30am WSW 22 29 - - - - - - - 12.8 999.4 0.2
01/08:00am WSW 21 28 - - - - - - - 12.6 999.2 0.2
01/07:35am WNW 13 29 - - - - - - - 15.4 998.7 0.0
01/07:30am NW 9 12 - - - - - - - 15.8 998.5 0.0
01/07:00am NNW 6 9 - - - - - - - 15.8 998.1 0.0
01/06:30am NNW 9 12 - - - - - - - 14.9 998.1 0.0
01/06:00am WNW 8 10 - - - - - - - 14.7 998.3 0.0
01/05:30am NW 10 14 - - - - - - - 15.1 998.5 0.0
01/05:00am NNW 10 12 - - - - - - - 14.5 998.7 0.0
01/04:30am N 6 7 - - - - - - - 13.5 998.6 0.0
01/04:00am NW 5 6 - - - - - - - 13.7 999.1 0.0
01/03:30am W 6 7 - - - - - - - 14.5 999.4 0.0
01/03:00am NW 8 10 - - - - - - - 14.8 999.8 0.0
01/02:30am NNW 7 8 - - - - - - - 14.9 1000.1 0.0
01/02:00am NNW 7 8 - - - - - - - 15.9 1000.5 0.0
01/01:30am N 7 8 - - - - - - - 16.0 1000.7 0.0
01/01:00am N 7 8 - - - - - - - 15.9 1001.2 0.0
01/12:30am NNE 6 7 - - - - - - - 15.5 1001.8 0.0
01/12:00am N 5 6 - - - - - - - 15.8 1002.3 0.0
 
Date/Time
EDT
Wind Sea
Height
m
Swell Vis
km
Cloud Weather Temp
°C
Press
MSL
hPa
Rain since
9am
mm
Dir  Spd
kts
Gust
kts
Height
m
Period
s
Dir
31/11:30pm N 5 6 - - - - - - - 15.9 1002.6 0.0
31/11:00pm N 5 5 - - - - - - - 16.0 1003.0 0.0
31/10:30pm E 4 4 - - - - - - - 16.2 1003.3 0.0
31/10:00pm ESE 2 4 - - - - - - - 16.5 1003.5 0.0
31/09:30pm ESE 3 6 - - - - - - - 16.6 1003.7 0.0
31/09:00pm E 8 10 - - - - - - - 16.8 1003.4 0.0
31/08:30pm ESE 11 14 - - - - - - - 16.7 1003.2 0.0
31/08:00pm ESE 12 16 - - - - - - - 16.7 1002.9 0.0
31/07:30pm ESE 13 16 - - - - - - - 17.0 1002.9 0.0
31/07:00pm ESE 12 15 - - - - - - - 17.2 1002.8 0.0
31/06:30pm ESE 15 18 - - - - - - - 17.7 1002.8 0.0
31/06:00pm ESE 17 20 - - - - - - - 18.3 1002.9 0.0
31/05:30pm ESE 18 21 - - - - - - - 17.9 1003.1 0.0
31/05:00pm ESE 18 21 - - - - - - - 19.2 1003.3 0.0
31/04:30pm ESE 17 20 - - - - - - - 19.4 1003.2 0.0
31/04:00pm ESE 16 19 - - - - - - - 19.5 1003.5 0.0
31/03:30pm ESE 14 16 - - - - - - - 20.1 1003.8 0.0
31/03:00pm ESE 14 17 - - - - - - - 20.0 1004.1 0.0
31/02:30pm SE 14 20 - - - - - - - 20.2 1004.4 0.0
31/02:00pm SSE 10 17 - - - - - - - 20.5 1004.6 0.0
31/01:30pm ESE 13 19 - - - - - - - 20.5 1004.7 0.0
31/01:00pm ESE 12 16 - - - - - - - 20.6 1004.8 0.0
31/12:30pm SE 9 12 - - - - - - - 20.7 1005.0 0.0
31/12:00pm SE 8 11 - - - - - - - 20.1 1005.4 0.0
31/11:30am ESE 8 9 - - - - - - - 20.2 1005.9 0.0
31/11:00am SW 4 8 - - - - - - - 19.7 1006.2 0.0
31/10:30am SE 1 4 - - - - - - - 19.8 1006.6 0.0
31/10:00am SE 4 6 - - - - - - - 18.2 1006.9 0.0
31/09:30am S 3 6 - - - - - - - 18.4 1007.1 0.0
31/09:00am W 2 3 - - - - - - - 17.3 1007.4 0.0
31/08:30am W 7 9 - - - - - - - 16.1 1007.7 0.0
31/08:00am NNW 8 10 - - - - - - - 16.0 1007.6 0.0
31/07:30am N 7 9 - - - - - - - 14.9 1007.4 0.0
31/07:00am NW 5 7 - - - - - - - 14.0 1007.3 0.0
31/06:30am NW 4 6 - - - - - - - 13.6 1007.2 0.0
31/06:00am N 6 8 - - - - - - - 13.7 1007.2 0.0
31/05:30am NNE 7 8 - - - - - - - 13.9 1007.0 0.0
31/05:00am NE 7 8 - - - - - - - 14.2 1007.2 0.0
31/04:30am NE 6 8 - - - - - - - 14.4 1007.4 0.0
31/04:00am NNE 6 8 - - - - - - - 14.4 1007.6 0.0
31/03:30am NNE 5 6 - - - - - - - 14.3 1008.0 0.0
31/03:00am NNW 4 5 - - - - - - - 14.4 1008.4 0.0
31/02:30am WNW 5 6 - - - - - - - 14.3 1008.8 0.0
31/02:00am WNW 6 7 - - - - - - - 14.3 1009.2 0.0
31/01:30am WNW 6 8 - - - - - - - 14.5 1009.7 0.0
31/01:00am WNW 5 7 - - - - - - - 14.6 1010.1 0.0

Other formats

Comma delimited format used in spreadsheet applications
http://www.bom.gov.au/fwo/IDT60701/IDT60701.95967.axf

JavaScript Object Notation format (JSON) in row-major order
http://www.bom.gov.au/fwo/IDT60701/IDT60701.95967.json

Data quality

Most of these data are generated automatically and are frequently updated. Quality checks on data are not normally performed. It is possible for incorrect values to appear. Refer to information at About Latest Weather Observations and please check the disclaimer before using these data.